sensor_id;sensor_type;location;lat;lon;timestamp;temperature;humidity
13892;DHT22;7016;48.172;8.058;2022-12-18T00:00:55;-7.50;99.90
13892;DHT22;7016;48.172;8.058;2022-12-18T00:03:21;-7.40;99.90
13892;DHT22;7016;48.172;8.058;2022-12-18T00:05:51;-7.40;99.90
13892;DHT22;7016;48.172;8.058;2022-12-18T00:08:17;-7.50;99.90
13892;DHT22;7016;48.172;8.058;2022-12-18T00:10:43;-7.40;99.90
13892;DHT22;7016;48.172;8.058;2022-12-18T00:13:09;-7.40;99.90
13892;DHT22;7016;48.172;8.058;2022-12-18T00:15:36;-7.50;99.90
13892;DHT22;7016;48.172;8.058;2022-12-18T00:18:02;-7.40;99.90
13892;DHT22;7016;48.172;8.058;2022-12-18T00:20:28;-7.30;99.90
13892;DHT22;7016;48.172;8.058;2022-12-18T00:22:54;-7.40;99.90
13892;DHT22;7016;48.172;8.058;2022-12-18T00:25:20;-7.50;99.90
13892;DHT22;7016;48.172;8.058;2022-12-18T00:27:46;-7.50;99.90
13892;DHT22;7016;48.172;8.058;2022-12-18T00:30:12;-7.40;99.90
13892;DHT22;7016;48.172;8.058;2022-12-18T00:32:38;-7.40;99.90
13892;DHT22;7016;48.172;8.058;2022-12-18T00:35:05;-7.30;99.90
13892;DHT22;7016;48.172;8.058;2022-12-18T00:37:30;-7.50;99.90
13892;DHT22;7016;48.172;8.058;2022-12-18T00:39:56;-7.50;99.90
13892;DHT22;7016;48.172;8.058;2022-12-18T00:42:22;-7.50;99.90
13892;DHT22;7016;48.172;8.058;2022-12-18T00:45:06;-7.50;99.90
13892;DHT22;7016;48.172;8.058;2022-12-18T00:47:32;-7.60;99.90
13892;DHT22;7016;48.172;8.058;2022-12-18T00:49:58;-7.50;99.90
13892;DHT22;7016;48.172;8.058;2022-12-18T00:52:23;-7.60;99.90
13892;DHT22;7016;48.172;8.058;2022-12-18T00:54:49;-7.50;99.90
13892;DHT22;7016;48.172;8.058;2022-12-18T00:57:15;-7.40;99.90
13892;DHT22;7016;48.172;8.058;2022-12-18T00:59:40;-7.40;99.90
13892;DHT22;7016;48.172;8.058;2022-12-18T01:02:06;-7.40;99.90
13892;DHT22;7016;48.172;8.058;2022-12-18T01:04:32;-7.40;99.90
13892;DHT22;7016;48.172;8.058;2022-12-18T01:06:58;-7.40;99.90
13892;DHT22;7016;48.172;8.058;2022-12-18T01:09:24;-7.40;99.90
13892;DHT22;7016;48.172;8.058;2022-12-18T01:11:50;-7.40;99.90
13892;DHT22;7016;48.172;8.058;2022-12-18T01:14:15;-7.30;99.90
13892;DHT22;7016;48.172;8.058;2022-12-18T01:16:41;-7.10;99.90
13892;DHT22;7016;48.172;8.058;2022-12-18T01:19:07;-7.20;99.90
13892;DHT22;7016;48.172;8.058;2022-12-18T01:21:33;-7.20;99.90
13892;DHT22;7016;48.172;8.058;2022-12-18T01:23:59;-7.00;99.90
13892;DHT22;7016;48.172;8.058;2022-12-18T01:26:26;-7.00;99.90
13892;DHT22;7016;48.172;8.058;2022-12-18T01:28:55;-7.00;99.90
13892;DHT22;7016;48.172;8.058;2022-12-18T01:31:27;-7.00;99.90
13892;DHT22;7016;48.172;8.058;2022-12-18T01:33:53;-7.10;99.90
13892;DHT22;7016;48.172;8.058;2022-12-18T01:36:33;-7.00;99.90
13892;DHT22;7016;48.172;8.058;2022-12-18T01:39:01;-7.00;99.90
13892;DHT22;7016;48.172;8.058;2022-12-18T01:41:29;-6.90;99.90
13892;DHT22;7016;48.172;8.058;2022-12-18T01:49:57;-6.90;99.90
13892;DHT22;7016;48.172;8.058;2022-12-18T01:52:26;-7.00;99.90
13892;DHT22;7016;48.172;8.058;2022-12-18T01:54:53;-6.90;99.90
13892;DHT22;7016;48.172;8.058;2022-12-18T01:57:20;-6.90;99.90
13892;DHT22;7016;48.172;8.058;2022-12-18T01:59:49;-7.00;99.90
13892;DHT22;7016;48.172;8.058;2022-12-18T02:02:16;-7.00;99.90
13892;DHT22;7016;48.172;8.058;2022-12-18T02:04:43;-6.90;99.90
13892;DHT22;7016;48.172;8.058;2022-12-18T02:07:17;-6.90;99.90
13892;DHT22;7016;48.172;8.058;2022-12-18T02:09:48;-6.90;99.90
13892;DHT22;7016;48.172;8.058;2022-12-18T02:12:19;-7.10;99.90
13892;DHT22;7016;48.172;8.058;2022-12-18T02:17:23;-6.90;99.90
13892;DHT22;7016;48.172;8.058;2022-12-18T02:28:15;-7.00;99.90
13892;DHT22;7016;48.172;8.058;2022-12-18T02:30:44;-6.90;99.90
13892;DHT22;7016;48.172;8.058;2022-12-18T02:33:11;-6.90;99.90
13892;DHT22;7016;48.172;8.058;2022-12-18T02:35:40;-7.00;99.90
13892;DHT22;7016;48.172;8.058;2022-12-18T02:38:07;-7.00;99.90
13892;DHT22;7016;48.172;8.058;2022-12-18T02:40:34;-7.10;99.90
13892;DHT22;7016;48.172;8.058;2022-12-18T02:43:13;-7.10;99.90
13892;DHT22;7016;48.172;8.058;2022-12-18T02:45:58;-7.00;99.90
13892;DHT22;7016;48.172;8.058;2022-12-18T02:48:32;-6.90;99.90
13892;DHT22;7016;48.172;8.058;2022-12-18T02:53:48;-7.00;99.90
13892;DHT22;7016;48.172;8.058;2022-12-18T02:56:22;-7.10;99.90
13892;DHT22;7016;48.172;8.058;2022-12-18T02:59:00;-7.10;99.90
13892;DHT22;7016;48.172;8.058;2022-12-18T03:02:31;-7.10;99.90
13892;DHT22;7016;48.172;8.058;2022-12-18T03:04:42;-7.30;99.90
13892;DHT22;7016;48.172;8.058;2022-12-18T03:07:11;-7.30;99.90
13892;DHT22;7016;48.172;8.058;2022-12-18T03:09:45;-7.20;99.90
13892;DHT22;7016;48.172;8.058;2022-12-18T03:12:24;-7.30;99.90
13892;DHT22;7016;48.172;8.058;2022-12-18T03:15:19;-7.20;99.90
13892;DHT22;7016;48.172;8.058;2022-12-18T03:17:54;-7.10;99.90
13892;DHT22;7016;48.172;8.058;2022-12-18T03:20:23;-7.10;99.90
13892;DHT22;7016;48.172;8.058;2022-12-18T03:22:55;-7.00;99.90
13892;DHT22;7016;48.172;8.058;2022-12-18T03:25:25;-7.10;99.90
13892;DHT22;7016;48.172;8.058;2022-12-18T03:27:55;-7.20;99.90
13892;DHT22;7016;48.172;8.058;2022-12-18T03:30:23;-7.20;99.90
13892;DHT22;7016;48.172;8.058;2022-12-18T03:33:07;-7.30;99.90
13892;DHT22;7016;48.172;8.058;2022-12-18T03:35:37;-7.40;99.90
13892;DHT22;7016;48.172;8.058;2022-12-18T03:38:04;-7.30;99.90
13892;DHT22;7016;48.172;8.058;2022-12-18T03:43:16;-7.40;99.90
13892;DHT22;7016;48.172;8.058;2022-12-18T03:45:52;-7.30;99.90
13892;DHT22;7016;48.172;8.058;2022-12-18T03:48:41;-7.20;99.90
13892;DHT22;7016;48.172;8.058;2022-12-18T03:51:18;-7.20;99.90
13892;DHT22;7016;48.172;8.058;2022-12-18T03:53:50;-7.40;99.90
13892;DHT22;7016;48.172;8.058;2022-12-18T03:58:47;-7.50;99.90
13892;DHT22;7016;48.172;8.058;2022-12-18T04:01:15;-7.40;99.90
13892;DHT22;7016;48.172;8.058;2022-12-18T04:03:43;-7.30;99.90
13892;DHT22;7016;48.172;8.058;2022-12-18T04:06:11;-7.40;99.90
13892;DHT22;7016;48.172;8.058;2022-12-18T04:08:38;-7.60;99.90
13892;DHT22;7016;48.172;8.058;2022-12-18T04:11:05;-7.60;99.90
13892;DHT22;7016;48.172;8.058;2022-12-18T04:13:37;-7.70;99.90
13892;DHT22;7016;48.172;8.058;2022-12-18T04:16:04;-7.70;99.90
13892;DHT22;7016;48.172;8.058;2022-12-18T04:18:30;-7.80;99.90
13892;DHT22;7016;48.172;8.058;2022-12-18T04:20:55;-7.70;99.90
13892;DHT22;7016;48.172;8.058;2022-12-18T04:23:21;-7.70;99.90
13892;DHT22;7016;48.172;8.058;2022-12-18T04:25:47;-7.70;99.90
13892;DHT22;7016;48.172;8.058;2022-12-18T04:28:13;-7.70;99.90
13892;DHT22;7016;48.172;8.058;2022-12-18T04:30:39;-7.80;99.90
13892;DHT22;7016;48.172;8.058;2022-12-18T04:33:11;-7.80;99.90
13892;DHT22;7016;48.172;8.058;2022-12-18T04:35:38;-7.80;99.90
13892;DHT22;7016;48.172;8.058;2022-12-18T04:38:08;-7.80;99.90
13892;DHT22;7016;48.172;8.058;2022-12-18T04:40:36;-7.90;99.90
13892;DHT22;7016;48.172;8.058;2022-12-18T04:43:02;-7.90;99.90
13892;DHT22;7016;48.172;8.058;2022-12-18T04:45:28;-7.90;99.90
13892;DHT22;7016;48.172;8.058;2022-12-18T04:47:53;-8.00;99.90
13892;DHT22;7016;48.172;8.058;2022-12-18T04:50:19;-7.90;99.90
13892;DHT22;7016;48.172;8.058;2022-12-18T04:52:45;-7.90;99.90
13892;DHT22;7016;48.172;8.058;2022-12-18T04:55:10;-7.90;99.90
13892;DHT22;7016;48.172;8.058;2022-12-18T04:57:36;-8.00;99.90
13892;DHT22;7016;48.172;8.058;2022-12-18T05:00:03;-8.00;99.90
13892;DHT22;7016;48.172;8.058;2022-12-18T05:02:29;-8.00;99.90
13892;DHT22;7016;48.172;8.058;2022-12-18T05:04:54;-8.00;99.90
13892;DHT22;7016;48.172;8.058;2022-12-18T05:07:20;-8.00;99.90
13892;DHT22;7016;48.172;8.058;2022-12-18T05:09:46;-8.00;99.90
13892;DHT22;7016;48.172;8.058;2022-12-18T05:12:11;-8.00;99.90
13892;DHT22;7016;48.172;8.058;2022-12-18T05:14:37;-8.00;99.90
13892;DHT22;7016;48.172;8.058;2022-12-18T05:17:03;-8.00;99.90
13892;DHT22;7016;48.172;8.058;2022-12-18T05:19:28;-8.00;99.90
13892;DHT22;7016;48.172;8.058;2022-12-18T05:21:54;-8.00;99.90
13892;DHT22;7016;48.172;8.058;2022-12-18T05:24:20;-8.00;99.90
13892;DHT22;7016;48.172;8.058;2022-12-18T05:26:46;-8.00;99.90
13892;DHT22;7016;48.172;8.058;2022-12-18T05:29:11;-8.00;99.90
13892;DHT22;7016;48.172;8.058;2022-12-18T05:31:38;-8.00;99.90
13892;DHT22;7016;48.172;8.058;2022-12-18T05:34:04;-8.10;99.90
13892;DHT22;7016;48.172;8.058;2022-12-18T05:36:30;-8.10;99.90
13892;DHT22;7016;48.172;8.058;2022-12-18T05:38:55;-8.10;99.90
13892;DHT22;7016;48.172;8.058;2022-12-18T05:41:21;-8.10;99.90
13892;DHT22;7016;48.172;8.058;2022-12-18T05:43:47;-8.20;99.90
13892;DHT22;7016;48.172;8.058;2022-12-18T05:46:15;-8.20;99.90
13892;DHT22;7016;48.172;8.058;2022-12-18T05:48:42;-8.20;99.90
13892;DHT22;7016;48.172;8.058;2022-12-18T05:51:10;-8.30;99.90
13892;DHT22;7016;48.172;8.058;2022-12-18T05:53:36;-8.20;99.90
13892;DHT22;7016;48.172;8.058;2022-12-18T05:56:04;-8.20;99.90
13892;DHT22;7016;48.172;8.058;2022-12-18T05:58:31;-8.00;99.90
13892;DHT22;7016;48.172;8.058;2022-12-18T06:00:57;-8.10;99.90
13892;DHT22;7016;48.172;8.058;2022-12-18T06:03:23;-8.00;99.90
13892;DHT22;7016;48.172;8.058;2022-12-18T06:05:49;-8.10;99.90
13892;DHT22;7016;48.172;8.058;2022-12-18T06:08:15;-8.10;99.90
13892;DHT22;7016;48.172;8.058;2022-12-18T06:10:41;-8.10;99.90
13892;DHT22;7016;48.172;8.058;2022-12-18T06:13:07;-8.10;99.90
13892;DHT22;7016;48.172;8.058;2022-12-18T06:15:36;-8.20;99.90
13892;DHT22;7016;48.172;8.058;2022-12-18T06:18:03;-8.10;99.90
13892;DHT22;7016;48.172;8.058;2022-12-18T06:20:28;-8.10;99.90
13892;DHT22;7016;48.172;8.058;2022-12-18T06:22:54;-7.80;99.90
13892;DHT22;7016;48.172;8.058;2022-12-18T06:25:20;-7.90;99.90
13892;DHT22;7016;48.172;8.058;2022-12-18T06:27:47;-8.10;99.90
13892;DHT22;7016;48.172;8.058;2022-12-18T06:30:13;-8.10;99.90
13892;DHT22;7016;48.172;8.058;2022-12-18T06:32:39;-8.00;99.90
13892;DHT22;7016;48.172;8.058;2022-12-18T06:35:05;-8.00;99.90
13892;DHT22;7016;48.172;8.058;2022-12-18T06:37:31;-7.90;99.90
13892;DHT22;7016;48.172;8.058;2022-12-18T06:39:57;-8.00;99.90
13892;DHT22;7016;48.172;8.058;2022-12-18T06:42:24;-8.00;99.90
13892;DHT22;7016;48.172;8.058;2022-12-18T06:44:49;-8.00;99.90
13892;DHT22;7016;48.172;8.058;2022-12-18T06:47:15;-7.90;99.90
13892;DHT22;7016;48.172;8.058;2022-12-18T06:49:41;-7.90;99.90
13892;DHT22;7016;48.172;8.058;2022-12-18T06:52:07;-7.80;99.90
13892;DHT22;7016;48.172;8.058;2022-12-18T06:54:33;-7.80;99.90
13892;DHT22;7016;48.172;8.058;2022-12-18T06:56:58;-7.90;99.90
13892;DHT22;7016;48.172;8.058;2022-12-18T06:59:24;-8.00;99.90
13892;DHT22;7016;48.172;8.058;2022-12-18T07:01:50;-8.00;99.90
13892;DHT22;7016;48.172;8.058;2022-12-18T07:04:16;-8.00;99.90
13892;DHT22;7016;48.172;8.058;2022-12-18T07:06:41;-8.20;99.90
13892;DHT22;7016;48.172;8.058;2022-12-18T07:09:07;-8.20;99.90
13892;DHT22;7016;48.172;8.058;2022-12-18T07:11:33;-8.20;99.90
13892;DHT22;7016;48.172;8.058;2022-12-18T07:13:59;-8.30;99.90
13892;DHT22;7016;48.172;8.058;2022-12-18T07:16:25;-8.30;99.90
13892;DHT22;7016;48.172;8.058;2022-12-18T07:18:52;-8.40;99.90
13892;DHT22;7016;48.172;8.058;2022-12-18T07:21:19;-8.30;99.90
13892;DHT22;7016;48.172;8.058;2022-12-18T07:23:45;-8.30;99.90
13892;DHT22;7016;48.172;8.058;2022-12-18T07:26:14;-8.40;99.90
13892;DHT22;7016;48.172;8.058;2022-12-18T07:28:41;-8.40;99.90
13892;DHT22;7016;48.172;8.058;2022-12-18T07:31:13;-8.20;99.90
13892;DHT22;7016;48.172;8.058;2022-12-18T07:33:40;-8.10;99.90
13892;DHT22;7016;48.172;8.058;2022-12-18T07:36:07;-8.10;99.90
13892;DHT22;7016;48.172;8.058;2022-12-18T07:38:35;-8.20;99.90
13892;DHT22;7016;48.172;8.058;2022-12-18T07:41:02;-8.20;99.90
13892;DHT22;7016;48.172;8.058;2022-12-18T07:43:28;-8.20;99.90
13892;DHT22;7016;48.172;8.058;2022-12-18T07:45:54;-8.30;99.90
13892;DHT22;7016;48.172;8.058;2022-12-18T07:48:20;-8.40;99.90
13892;DHT22;7016;48.172;8.058;2022-12-18T07:50:45;-8.30;99.90
13892;DHT22;7016;48.172;8.058;2022-12-18T07:53:11;-8.30;99.90
13892;DHT22;7016;48.172;8.058;2022-12-18T07:55:37;-8.40;99.90
13892;DHT22;7016;48.172;8.058;2022-12-18T07:58:04;-8.30;99.90
13892;DHT22;7016;48.172;8.058;2022-12-18T08:00:30;-8.20;99.90
13892;DHT22;7016;48.172;8.058;2022-12-18T08:02:56;-8.30;99.90
13892;DHT22;7016;48.172;8.058;2022-12-18T08:05:22;-8.30;99.90
13892;DHT22;7016;48.172;8.058;2022-12-18T08:07:49;-8.20;99.90
13892;DHT22;7016;48.172;8.058;2022-12-18T08:10:15;-10.30;99.90
13892;DHT22;7016;48.172;8.058;2022-12-18T08:12:41;-8.10;99.90
13892;DHT22;7016;48.172;8.058;2022-12-18T08:15:07;-8.00;99.90
13892;DHT22;7016;48.172;8.058;2022-12-18T08:17:33;-8.00;99.90
13892;DHT22;7016;48.172;8.058;2022-12-18T08:19:58;-8.00;99.90
13892;DHT22;7016;48.172;8.058;2022-12-18T08:22:24;-7.80;99.90
13892;DHT22;7016;48.172;8.058;2022-12-18T08:24:50;-7.70;99.90
13892;DHT22;7016;48.172;8.058;2022-12-18T08:27:16;-7.70;99.90
13892;DHT22;7016;48.172;8.058;2022-12-18T08:29:41;-7.70;99.90
13892;DHT22;7016;48.172;8.058;2022-12-18T08:32:07;-7.80;99.90
13892;DHT22;7016;48.172;8.058;2022-12-18T08:34:33;-7.80;99.90
13892;DHT22;7016;48.172;8.058;2022-12-18T08:36:59;-6.70;99.90
13892;DHT22;7016;48.172;8.058;2022-12-18T08:39:24;-7.90;99.90
13892;DHT22;7016;48.172;8.058;2022-12-18T08:41:50;-7.90;99.90
13892;DHT22;7016;48.172;8.058;2022-12-18T08:44:35;-7.70;99.90
13892;DHT22;7016;48.172;8.058;2022-12-18T08:47:04;-7.60;99.90
13892;DHT22;7016;48.172;8.058;2022-12-18T08:49:30;-7.50;99.90
13892;DHT22;7016;48.172;8.058;2022-12-18T08:51:56;-7.40;99.90
13892;DHT22;7016;48.172;8.058;2022-12-18T08:54:25;-7.20;99.90
13892;DHT22;7016;48.172;8.058;2022-12-18T08:56:51;-7.00;99.90
13892;DHT22;7016;48.172;8.058;2022-12-18T08:59:18;-7.00;99.90
13892;DHT22;7016;48.172;8.058;2022-12-18T09:01:44;-7.10;99.90
13892;DHT22;7016;48.172;8.058;2022-12-18T09:04:11;-7.30;99.90
13892;DHT22;7016;48.172;8.058;2022-12-18T09:06:37;-7.20;99.90
13892;DHT22;7016;48.172;8.058;2022-12-18T09:09:04;-7.20;99.90
13892;DHT22;7016;48.172;8.058;2022-12-18T09:11:31;-7.10;99.90
13892;DHT22;7016;48.172;8.058;2022-12-18T09:13:57;-7.00;99.90
13892;DHT22;7016;48.172;8.058;2022-12-18T09:16:25;-6.70;99.90
13892;DHT22;7016;48.172;8.058;2022-12-18T09:18:51;-6.70;99.90
13892;DHT22;7016;48.172;8.058;2022-12-18T09:21:20;-6.60;99.90
13892;DHT22;7016;48.172;8.058;2022-12-18T09:23:56;-6.40;99.90
13892;DHT22;7016;48.172;8.058;2022-12-18T09:28:49;-6.60;99.90
13892;DHT22;7016;48.172;8.058;2022-12-18T09:31:17;-6.50;99.90
13892;DHT22;7016;48.172;8.058;2022-12-18T09:33:43;-6.30;99.90
13892;DHT22;7016;48.172;8.058;2022-12-18T09:36:13;-6.20;99.90
13892;DHT22;7016;48.172;8.058;2022-12-18T09:38:39;-6.10;99.90
13892;DHT22;7016;48.172;8.058;2022-12-18T09:43:49;-5.90;99.90
13892;DHT22;7016;48.172;8.058;2022-12-18T09:46:46;-5.70;99.90
13892;DHT22;7016;48.172;8.058;2022-12-18T09:49:15;-5.70;99.90
13892;DHT22;7016;48.172;8.058;2022-12-18T09:51:54;-5.60;99.90
13892;DHT22;7016;48.172;8.058;2022-12-18T09:54:43;-5.50;99.90
13892;DHT22;7016;48.172;8.058;2022-12-18T09:57:20;-5.50;99.90
13892;DHT22;7016;48.172;8.058;2022-12-18T09:59:51;-5.50;99.90
13892;DHT22;7016;48.172;8.058;2022-12-18T10:02:24;-5.30;99.90
13892;DHT22;7016;48.172;8.058;2022-12-18T10:05:00;-5.30;99.90
13892;DHT22;7016;48.172;8.058;2022-12-18T10:07:47;-5.00;99.90
13892;DHT22;7016;48.172;8.058;2022-12-18T10:16:53;-4.60;99.90
13892;DHT22;7016;48.172;8.058;2022-12-18T10:26:54;-4.20;99.90
13892;DHT22;7016;48.172;8.058;2022-12-18T10:29:21;-4.20;99.90
13892;DHT22;7016;48.172;8.058;2022-12-18T10:31:48;-4.10;99.90
13892;DHT22;7016;48.172;8.058;2022-12-18T10:34:14;-4.10;99.90
13892;DHT22;7016;48.172;8.058;2022-12-18T10:36:40;-3.90;99.90
13892;DHT22;7016;48.172;8.058;2022-12-18T10:39:23;-3.90;99.90
13892;DHT22;7016;48.172;8.058;2022-12-18T10:41:51;-3.90;99.90
13892;DHT22;7016;48.172;8.058;2022-12-18T10:44:24;-3.90;99.90
13892;DHT22;7016;48.172;8.058;2022-12-18T10:47:03;-3.80;99.90
13892;DHT22;7016;48.172;8.058;2022-12-18T10:49:32;-3.80;99.90
13892;DHT22;7016;48.172;8.058;2022-12-18T10:54:32;-3.60;99.90
13892;DHT22;7016;48.172;8.058;2022-12-18T10:59:57;-3.50;99.90
13892;DHT22;7016;48.172;8.058;2022-12-18T11:02:28;-3.40;99.90
13892;DHT22;7016;48.172;8.058;2022-12-18T11:04:58;-3.30;99.90
13892;DHT22;7016;48.172;8.058;2022-12-18T11:07:24;-3.20;99.90
13892;DHT22;7016;48.172;8.058;2022-12-18T11:10:00;-3.10;99.90
13892;DHT22;7016;48.172;8.058;2022-12-18T11:12:28;-3.00;99.90
13892;DHT22;7016;48.172;8.058;2022-12-18T11:14:55;-3.00;99.90
13892;DHT22;7016;48.172;8.058;2022-12-18T11:17:33;-2.90;99.90
13892;DHT22;7016;48.172;8.058;2022-12-18T11:20:06;-2.90;99.90
13892;DHT22;7016;48.172;8.058;2022-12-18T11:22:35;-2.80;99.90
13892;DHT22;7016;48.172;8.058;2022-12-18T11:25:17;-2.60;99.90
13892;DHT22;7016;48.172;8.058;2022-12-18T11:28:27;-2.60;99.90
13892;DHT22;7016;48.172;8.058;2022-12-18T11:31:17;-2.60;99.90
13892;DHT22;7016;48.172;8.058;2022-12-18T11:36:21;-2.50;99.90
13892;DHT22;7016;48.172;8.058;2022-12-18T11:38:49;-2.40;99.90
13892;DHT22;7016;48.172;8.058;2022-12-18T11:41:42;-2.40;99.90
13892;DHT22;7016;48.172;8.058;2022-12-18T11:49:39;-2.20;99.90
13892;DHT22;7016;48.172;8.058;2022-12-18T11:52:12;-2.10;99.90
13892;DHT22;7016;48.172;8.058;2022-12-18T11:54:40;-2.00;99.90
13892;DHT22;7016;48.172;8.058;2022-12-18T11:59:56;-1.90;99.90
13892;DHT22;7016;48.172;8.058;2022-12-18T12:08:19;-1.70;99.90
13892;DHT22;7016;48.172;8.058;2022-12-18T12:16:21;-1.60;99.90
13892;DHT22;7016;48.172;8.058;2022-12-18T12:40:24;-1.20;99.90
13892;DHT22;7016;48.172;8.058;2022-12-18T12:42:55;-1.20;99.90
13892;DHT22;7016;48.172;8.058;2022-12-18T12:46:06;-1.10;99.90
13892;DHT22;7016;48.172;8.058;2022-12-18T12:51:07;-1.10;99.90
13892;DHT22;7016;48.172;8.058;2022-12-18T12:53:36;-1.00;99.90
13892;DHT22;7016;48.172;8.058;2022-12-18T12:56:04;-1.00;99.90
13892;DHT22;7016;48.172;8.058;2022-12-18T12:59:22;-1.00;99.90
13892;DHT22;7016;48.172;8.058;2022-12-18T13:01:52;-0.90;99.90
13892;DHT22;7016;48.172;8.058;2022-12-18T13:04:49;-0.90;99.90
13892;DHT22;7016;48.172;8.058;2022-12-18T13:10:26;-0.80;99.90
13892;DHT22;7016;48.172;8.058;2022-12-18T13:18:14;-0.80;99.90
13892;DHT22;7016;48.172;8.058;2022-12-18T13:30:58;-0.70;99.90
13892;DHT22;7016;48.172;8.058;2022-12-18T13:36:14;-0.60;99.90
13892;DHT22;7016;48.172;8.058;2022-12-18T13:38:42;-0.60;99.90
13892;DHT22;7016;48.172;8.058;2022-12-18T13:43:47;-0.60;99.90
13892;DHT22;7016;48.172;8.058;2022-12-18T13:46:27;-0.60;99.90
13892;DHT22;7016;48.172;8.058;2022-12-18T13:48:57;-0.60;99.90
13892;DHT22;7016;48.172;8.058;2022-12-18T13:51:25;-0.50;99.90
13892;DHT22;7016;48.172;8.058;2022-12-18T13:53:58;-0.60;99.90
13892;DHT22;7016;48.172;8.058;2022-12-18T13:56:26;-0.60;99.90
13892;DHT22;7016;48.172;8.058;2022-12-18T13:59:14;-0.60;99.90
13892;DHT22;7016;48.172;8.058;2022-12-18T14:02:00;-0.50;99.90
13892;DHT22;7016;48.172;8.058;2022-12-18T14:04:33;-0.50;99.90
13892;DHT22;7016;48.172;8.058;2022-12-18T14:07:23;-0.60;99.90
13892;DHT22;7016;48.172;8.058;2022-12-18T14:09:52;-0.50;99.90
13892;DHT22;7016;48.172;8.058;2022-12-18T14:12:24;-0.50;99.90
13892;DHT22;7016;48.172;8.058;2022-12-18T14:15:33;-0.50;99.90
13892;DHT22;7016;48.172;8.058;2022-12-18T14:18:24;-0.50;99.90
13892;DHT22;7016;48.172;8.058;2022-12-18T14:20:50;-0.50;99.90
13892;DHT22;7016;48.172;8.058;2022-12-18T14:23:33;-0.50;99.90
13892;DHT22;7016;48.172;8.058;2022-12-18T14:26:00;-0.50;99.90
13892;DHT22;7016;48.172;8.058;2022-12-18T14:28:27;-0.50;99.90
13892;DHT22;7016;48.172;8.058;2022-12-18T14:30:53;-0.60;99.90
13892;DHT22;7016;48.172;8.058;2022-12-18T14:33:25;-0.60;99.90
13892;DHT22;7016;48.172;8.058;2022-12-18T14:35:58;0.90;99.90
13892;DHT22;7016;48.172;8.058;2022-12-18T14:41:05;-0.60;99.90
13892;DHT22;7016;48.172;8.058;2022-12-18T14:43:35;-0.60;99.90
13892;DHT22;7016;48.172;8.058;2022-12-18T14:46:03;-0.60;99.90
13892;DHT22;7016;48.172;8.058;2022-12-18T14:48:38;-0.60;99.90
13892;DHT22;7016;48.172;8.058;2022-12-18T14:51:22;-0.60;99.90
13892;DHT22;7016;48.172;8.058;2022-12-18T14:53:57;-0.60;99.90
13892;DHT22;7016;48.172;8.058;2022-12-18T14:56:24;-0.60;99.90
13892;DHT22;7016;48.172;8.058;2022-12-18T14:59:06;-0.70;99.90
13892;DHT22;7016;48.172;8.058;2022-12-18T15:01:49;-0.70;99.90
13892;DHT22;7016;48.172;8.058;2022-12-18T15:04:36;-0.70;99.90
13892;DHT22;7016;48.172;8.058;2022-12-18T15:09:37;-0.60;99.90
13892;DHT22;7016;48.172;8.058;2022-12-18T15:12:04;-0.60;99.90
13892;DHT22;7016;48.172;8.058;2022-12-18T15:16:56;-0.60;99.90
13892;DHT22;7016;48.172;8.058;2022-12-18T15:19:34;-0.60;99.90
13892;DHT22;7016;48.172;8.058;2022-12-18T15:22:00;-0.60;99.90
13892;DHT22;7016;48.172;8.058;2022-12-18T15:24:30;-0.60;99.90
13892;DHT22;7016;48.172;8.058;2022-12-18T15:26:56;-0.60;99.90
13892;DHT22;7016;48.172;8.058;2022-12-18T15:29:22;-0.60;99.90
13892;DHT22;7016;48.172;8.058;2022-12-18T15:32:02;-0.60;99.90
13892;DHT22;7016;48.172;8.058;2022-12-18T15:34:29;-0.60;99.90
13892;DHT22;7016;48.172;8.058;2022-12-18T15:36:55;-0.60;99.90
13892;DHT22;7016;48.172;8.058;2022-12-18T15:39:20;-0.60;99.90
13892;DHT22;7016;48.172;8.058;2022-12-18T15:41:46;-0.50;99.90
13892;DHT22;7016;48.172;8.058;2022-12-18T15:44:31;-0.60;99.90
13892;DHT22;7016;48.172;8.058;2022-12-18T15:46:57;-0.60;99.90
13892;DHT22;7016;48.172;8.058;2022-12-18T15:49:23;-0.60;99.90
13892;DHT22;7016;48.172;8.058;2022-12-18T15:51:52;-0.60;99.90
13892;DHT22;7016;48.172;8.058;2022-12-18T15:54:19;-0.50;99.90
13892;DHT22;7016;48.172;8.058;2022-12-18T15:57:11;-0.50;99.90
13892;DHT22;7016;48.172;8.058;2022-12-18T15:59:50;-0.50;99.90
13892;DHT22;7016;48.172;8.058;2022-12-18T16:02:18;-0.50;99.90
13892;DHT22;7016;48.172;8.058;2022-12-18T16:04:44;-0.50;99.90
13892;DHT22;7016;48.172;8.058;2022-12-18T16:07:11;-0.40;99.90
13892;DHT22;7016;48.172;8.058;2022-12-18T16:09:37;-0.40;99.90
13892;DHT22;7016;48.172;8.058;2022-12-18T16:12:25;-0.40;99.90
13892;DHT22;7016;48.172;8.058;2022-12-18T16:14:51;-0.50;99.90
13892;DHT22;7016;48.172;8.058;2022-12-18T16:17:17;-0.40;99.90
13892;DHT22;7016;48.172;8.058;2022-12-18T16:19:42;-0.40;99.90
13892;DHT22;7016;48.172;8.058;2022-12-18T16:22:21;-0.40;99.90
13892;DHT22;7016;48.172;8.058;2022-12-18T16:24:48;-0.50;99.90
13892;DHT22;7016;48.172;8.058;2022-12-18T16:27:14;-0.50;99.90
13892;DHT22;7016;48.172;8.058;2022-12-18T16:29:40;-0.50;99.90
13892;DHT22;7016;48.172;8.058;2022-12-18T16:32:06;-0.50;99.90
13892;DHT22;7016;48.172;8.058;2022-12-18T16:34:33;-0.40;99.90
13892;DHT22;7016;48.172;8.058;2022-12-18T16:37:02;-0.30;99.90
13892;DHT22;7016;48.172;8.058;2022-12-18T16:41:56;-0.30;99.90
13892;DHT22;7016;48.172;8.058;2022-12-18T16:44:21;-0.30;99.90
13892;DHT22;7016;48.172;8.058;2022-12-18T16:46:47;-0.30;99.90
13892;DHT22;7016;48.172;8.058;2022-12-18T16:49:15;-0.30;99.90
13892;DHT22;7016;48.172;8.058;2022-12-18T16:51:41;-0.30;99.90
13892;DHT22;7016;48.172;8.058;2022-12-18T16:54:07;-0.30;99.90
13892;DHT22;7016;48.172;8.058;2022-12-18T16:56:33;-0.20;99.90
13892;DHT22;7016;48.172;8.058;2022-12-18T16:59:00;-0.30;99.90
13892;DHT22;7016;48.172;8.058;2022-12-18T17:01:28;-0.20;99.90
13892;DHT22;7016;48.172;8.058;2022-12-18T17:04:00;-0.20;99.90
13892;DHT22;7016;48.172;8.058;2022-12-18T17:06:28;-0.30;99.90
13892;DHT22;7016;48.172;8.058;2022-12-18T17:08:59;-0.30;99.90
13892;DHT22;7016;48.172;8.058;2022-12-18T17:11:27;-0.30;99.90
13892;DHT22;7016;48.172;8.058;2022-12-18T17:13:53;-0.40;99.90
13892;DHT22;7016;48.172;8.058;2022-12-18T17:16:19;-0.40;99.90
13892;DHT22;7016;48.172;8.058;2022-12-18T17:18:45;-0.40;99.90
13892;DHT22;7016;48.172;8.058;2022-12-18T17:21:12;-0.20;99.90
13892;DHT22;7016;48.172;8.058;2022-12-18T17:23:40;-0.20;99.90
13892;DHT22;7016;48.172;8.058;2022-12-18T17:26:06;-0.10;99.90
13892;DHT22;7016;48.172;8.058;2022-12-18T17:28:33;-0.30;99.90
13892;DHT22;7016;48.172;8.058;2022-12-18T17:30:59;-0.20;99.90
13892;DHT22;7016;48.172;8.058;2022-12-18T17:33:26;-0.20;99.90
13892;DHT22;7016;48.172;8.058;2022-12-18T17:35:51;-0.10;99.90
13892;DHT22;7016;48.172;8.058;2022-12-18T17:38:17;-0.20;99.90
13892;DHT22;7016;48.172;8.058;2022-12-18T17:40:43;-0.20;99.90
13892;DHT22;7016;48.172;8.058;2022-12-18T17:43:10;-0.20;99.90
13892;DHT22;7016;48.172;8.058;2022-12-18T17:45:37;-0.20;99.90
13892;DHT22;7016;48.172;8.058;2022-12-18T17:48:08;-0.30;99.90
13892;DHT22;7016;48.172;8.058;2022-12-18T17:50:35;-0.30;99.90
13892;DHT22;7016;48.172;8.058;2022-12-18T17:53:01;-0.40;99.90
13892;DHT22;7016;48.172;8.058;2022-12-18T17:55:27;-0.30;99.90
13892;DHT22;7016;48.172;8.058;2022-12-18T17:57:53;-0.30;99.90
13892;DHT22;7016;48.172;8.058;2022-12-18T18:00:19;-0.20;99.90
13892;DHT22;7016;48.172;8.058;2022-12-18T18:02:45;-0.20;99.90
13892;DHT22;7016;48.172;8.058;2022-12-18T18:05:11;-0.20;99.90
13892;DHT22;7016;48.172;8.058;2022-12-18T18:07:38;-0.20;99.90
13892;DHT22;7016;48.172;8.058;2022-12-18T18:10:05;-0.20;99.90